Time;durP1;ratioP1;P1;durP2;ratioP2;P2;SDS_P1;SDS_P2;PMS_P1;PMS_P2;Temp;Humidity;BMP_temperature;BMP_pressure;BME280_temperature;BME280_humidity;BME280_pressure;Samples;Min_cycle;Max_cycle;Signal;HPM_P1;HPM_P2
2021/11/28 00:00:31;;;;;;;60.10;43.58;;;2.20;99.90;;;;;;4987107;28;20469;-82
2021/11/28 00:02:58;;;;;;;59.20;42.95;;;2.20;99.90;;;;;;4969295;28;20396;-83
2021/11/28 00:05:26;;;;;;;55.70;42.38;;;2.20;99.90;;;;;;4986960;28;20387;-83
2021/11/28 00:08:11;;;;;;;56.08;42.75;;;2.20;99.90;;;;;;4970303;28;20421;-83
2021/11/28 00:15:56;;;;;;;66.80;44.15;;;2.20;99.90;;;;;;4978328;28;20528;-83
2021/11/28 00:18:22;;;;;;;51.70;39.57;;;2.20;99.90;;;;;;4978104;28;20392;-83
2021/11/28 00:20:48;;;;;;;54.53;39.15;;;2.20;99.90;;;;;;4983164;28;20413;-83
2021/11/28 00:23:14;;;;;;;45.47;36.45;;;2.10;99.90;;;;;;4975898;28;20394;-83
2021/11/28 00:25:40;;;;;;;53.13;40.03;;;2.10;99.90;;;;;;4977863;28;20432;-83
2021/11/28 00:28:07;;;;;;;51.25;37.58;;;2.10;99.90;;;;;;4972078;28;20502;-83
2021/11/28 00:30:33;;;;;;;49.85;36.83;;;2.00;99.90;;;;;;4977617;28;20375;-82
2021/11/28 00:33:00;;;;;;;53.20;37.72;;;2.00;99.90;;;;;;4974160;28;20497;-82
2021/11/28 00:35:26;;;;;;;50.95;38.05;;;1.90;99.90;;;;;;4967702;28;20399;-82
2021/11/28 00:37:52;;;;;;;48.03;36.55;;;1.90;99.90;;;;;;4970060;28;20410;-83
2021/11/28 00:40:18;;;;;;;48.60;36.28;;;1.80;99.90;;;;;;4972746;28;20409;-82
2021/11/28 00:42:43;;;;;;;45.77;33.90;;;1.80;99.90;;;;;;4974725;28;20383;-82
2021/11/28 00:45:09;;;;;;;49.07;36.63;;;1.70;99.90;;;;;;4975591;28;20383;-82
2021/11/28 00:47:35;;;;;;;46.75;35.20;;;1.70;99.90;;;;;;4975681;28;20418;-83
2021/11/28 00:50:06;;;;;;;43.17;33.80;;;1.60;99.90;;;;;;4977807;28;20411;-82
2021/11/28 00:52:33;;;;;;;47.22;35.33;;;1.60;99.90;;;;;;4969723;28;20390;-83
2021/11/28 00:55:00;;;;;;;47.63;34.60;;;1.60;99.90;;;;;;4970494;28;20824;-82
2021/11/28 00:57:27;;;;;;;45.22;35.22;;;1.60;99.90;;;;;;4969060;28;20383;-83
2021/11/28 00:59:54;;;;;;;42.17;33.08;;;1.50;99.90;;;;;;4969556;28;20399;-82
2021/11/28 01:02:21;;;;;;;46.90;34.43;;;1.50;99.90;;;;;;4975749;28;20398;-82
2021/11/28 01:04:48;;;;;;;42.17;32.53;;;1.40;99.90;;;;;;4967835;28;20407;-83
2021/11/28 01:07:14;;;;;;;42.90;31.70;;;1.40;99.90;;;;;;4984835;28;20493;-83
2021/11/28 01:09:40;;;;;;;46.25;34.63;;;1.30;99.90;;;;;;4965792;28;20392;-82
2021/11/28 01:12:07;;;;;;;42.40;33.08;;;1.30;99.90;;;;;;4984930;28;20445;-83
2021/11/28 01:14:34;;;;;;;41.88;33.67;;;1.30;99.90;;;;;;4969270;28;20399;-83
2021/11/28 01:17:00;;;;;;;51.30;37.20;;;1.30;99.90;;;;;;4985545;28;20430;-83
2021/11/28 01:19:26;;;;;;;49.15;35.35;;;1.30;99.90;;;;;;4970961;28;20899;-83
2021/11/28 01:22:02;;;;;;;51.00;36.87;;;1.30;99.90;;;;;;4970573;28;20438;-82
2021/11/28 01:24:28;;;;;;;51.05;35.70;;;1.30;99.90;;;;;;4968916;28;20438;-82
2021/11/28 01:26:55;;;;;;;44.97;33.43;;;1.30;99.90;;;;;;4970678;28;20410;-82
2021/11/28 01:29:22;;;;;;;53.40;35.85;;;1.30;99.90;;;;;;4969514;28;20465;-82
2021/11/28 01:31:48;;;;;;;43.70;32.05;;;1.20;99.90;;;;;;4969232;28;20387;-82
2021/11/28 01:34:14;;;;;;;44.60;33.22;;;1.30;99.90;;;;;;4970863;28;20481;-83
2021/11/28 01:36:40;;;;;;;43.30;32.65;;;1.30;99.90;;;;;;4969694;28;20469;-82
2021/11/28 01:39:08;;;;;;;53.70;37.80;;;1.20;99.90;;;;;;4985109;28;20387;-82
2021/11/28 01:41:34;;;;;;;51.10;36.90;;;1.30;99.90;;;;;;4970657;28;20434;-83
2021/11/28 01:44:00;;;;;;;42.33;31.30;;;1.30;99.90;;;;;;4970831;28;21489;-82
2021/11/28 01:46:27;;;;;;;44.35;33.03;;;1.40;99.90;;;;;;4970684;28;20390;-82
2021/11/28 01:48:54;;;;;;;41.70;30.65;;;1.40;99.90;;;;;;4970621;28;20394;-82
2021/11/28 01:51:21;;;;;;;48.38;32.80;;;1.40;99.90;;;;;;4969066;28;20533;-82
2021/11/28 01:53:48;;;;;;;44.20;32.85;;;1.40;99.90;;;;;;4970377;28;20374;-82
2021/11/28 01:56:15;;;;;;;41.42;31.27;;;1.40;99.90;;;;;;4969199;28;20402;-83
2021/11/28 01:58:40;;;;;;;45.25;32.58;;;1.40;99.90;;;;;;4970380;28;20783;-83
2021/11/28 02:01:11;;;;;;;45.97;34.17;;;1.50;99.90;;;;;;4970284;28;20402;-83
2021/11/28 02:03:39;;;;;;;46.08;31.85;;;1.50;99.90;;;;;;4970714;28;20395;-82
2021/11/28 02:06:08;;;;;;;59.75;35.92;;;1.60;99.90;;;;;;4968974;28;21403;-82
2021/11/28 02:08:34;;;;;;;54.67;34.93;;;1.70;99.90;;;;;;4968574;28;20943;-82
2021/11/28 02:11:00;;;;;;;42.17;32.13;;;1.70;99.90;;;;;;4970116;28;20395;-83
2021/11/28 02:13:27;;;;;;;39.43;30.83;;;1.80;99.90;;;;;;4968685;28;20405;-82
2021/11/28 02:15:53;;;;;;;42.83;32.28;;;1.90;99.90;;;;;;4969914;28;20466;-82
2021/11/28 02:18:20;;;;;;;36.47;29.38;;;2.00;99.90;;;;;;4970037;28;20386;-82
2021/11/28 02:20:47;;;;;;;37.60;29.17;;;2.00;99.90;;;;;;4984782;28;20416;-82
2021/11/28 02:23:14;;;;;;;37.37;28.50;;;2.00;99.90;;;;;;4968533;28;20476;-83
2021/11/28 02:25:41;;;;;;;37.27;29.30;;;2.00;99.90;;;;;;4969549;28;20753;-82
2021/11/28 02:28:07;;;;;;;40.87;30.63;;;2.00;99.90;;;;;;4968128;28;20464;-82
2021/11/28 02:30:33;;;;;;;39.55;29.50;;;2.00;99.90;;;;;;4968105;28;20402;-83
2021/11/28 02:33:00;;;;;;;46.67;33.65;;;2.00;99.90;;;;;;4969642;28;20391;-83
2021/11/28 02:35:30;;;;;;;45.10;32.90;;;2.10;99.90;;;;;;4969257;28;20537;-82
2021/11/28 02:37:56;;;;;;;41.72;32.90;;;2.10;99.90;;;;;;4975213;28;20414;-82
2021/11/28 02:40:24;;;;;;;41.73;32.07;;;2.10;99.90;;;;;;4969657;28;21015;-82
2021/11/28 02:42:51;;;;;;;48.67;34.40;;;2.10;99.90;;;;;;4968398;28;20391;-82
2021/11/28 02:45:18;;;;;;;41.03;31.23;;;2.10;99.90;;;;;;4969568;28;20461;-83
2021/11/28 02:47:44;;;;;;;45.30;33.03;;;2.10;99.90;;;;;;4983727;28;20443;-83
2021/11/28 02:50:12;;;;;;;44.60;32.55;;;2.10;99.90;;;;;;4969542;28;20428;-83
2021/11/28 02:52:39;;;;;;;37.03;29.67;;;2.10;99.90;;;;;;4966313;28;20394;-83
2021/11/28 02:55:05;;;;;;;46.25;32.70;;;2.20;99.90;;;;;;4969180;28;20406;-83
2021/11/28 02:57:31;;;;;;;42.65;32.22;;;2.20;99.90;;;;;;4976672;28;20505;-83
2021/11/28 02:59:57;;;;;;;49.80;33.67;;;2.30;99.90;;;;;;4980925;28;20487;-83
2021/11/28 03:02:23;;;;;;;43.80;32.80;;;2.30;99.90;;;;;;4969583;28;20947;-83
2021/11/28 03:04:49;;;;;;;43.40;33.20;;;2.30;99.90;;;;;;4969404;28;20469;-83
2021/11/28 03:07:20;;;;;;;40.47;31.40;;;2.30;99.90;;;;;;4969535;28;20410;-83
2021/11/28 03:09:46;;;;;;;44.13;31.92;;;2.30;99.90;;;;;;4969178;28;20406;-83
2021/11/28 03:12:12;;;;;;;44.22;32.38;;;2.40;99.90;;;;;;4983777;28;20399;-82
2021/11/28 03:14:38;;;;;;;47.95;34.72;;;2.30;99.90;;;;;;4983953;28;20565;-83
2021/11/28 03:17:05;;;;;;;37.95;30.58;;;2.40;99.90;;;;;;4978869;28;20387;-83
2021/11/28 03:19:30;;;;;;;39.17;31.17;;;2.40;99.90;;;;;;4984103;28;20394;-83
2021/11/28 03:21:56;;;;;;;37.90;30.45;;;2.50;99.90;;;;;;4969123;28;20397;-82
2021/11/28 03:24:22;;;;;;;35.25;28.98;;;2.60;99.90;;;;;;4968547;28;20402;-83
2021/11/28 03:26:48;;;;;;;42.00;30.67;;;2.60;99.90;;;;;;4968969;28;20457;-83
2021/11/28 03:29:19;;;;;;;37.15;29.95;;;2.50;99.90;;;;;;4969089;28;20858;-83
2021/11/28 03:31:49;;;;;;;37.10;28.40;;;2.50;99.90;;;;;;4969452;28;20383;-83
2021/11/28 03:34:17;;;;;;;37.30;28.60;;;2.40;99.90;;;;;;4968822;28;20394;-83
2021/11/28 03:36:56;;;;;;;37.88;28.35;;;2.30;99.90;;;;;;4969207;28;20382;-82
2021/11/28 03:39:29;;;;;;;36.00;28.85;;;2.20;99.90;;;;;;4969126;28;20390;-82
2021/11/28 03:42:01;;;;;;;34.65;28.85;;;2.10;99.90;;;;;;4968845;28;20405;-83
2021/11/28 03:44:29;;;;;;;35.22;29.58;;;2.00;99.90;;;;;;4979266;28;20391;-82
2021/11/28 03:46:55;;;;;;;34.67;28.27;;;2.00;99.90;;;;;;4983881;28;20425;-83
2021/11/28 03:49:21;;;;;;;34.27;27.53;;;1.80;99.90;;;;;;4969001;28;20737;-82
2021/11/28 03:51:47;;;;;;;33.30;27.00;;;1.70;99.90;;;;;;4968861;28;20393;-83
2021/11/28 03:54:13;;;;;;;34.88;26.95;;;1.60;99.90;;;;;;4969007;28;20379;-82
2021/11/28 03:56:39;;;;;;;34.65;26.73;;;1.50;99.90;;;;;;4966847;28;20406;-82
2021/11/28 03:59:05;;;;;;;35.78;28.10;;;1.40;99.90;;;;;;4968518;28;20394;-82
2021/11/28 04:01:31;;;;;;;42.10;30.23;;;1.30;99.90;;;;;;4971747;28;20387;-82
2021/11/28 04:03:56;;;;;;;38.10;27.57;;;1.20;99.90;;;;;;4972029;28;20422;-82
2021/11/28 04:06:22;;;;;;;37.07;27.70;;;1.10;99.90;;;;;;4970458;28;20391;-82
2021/11/28 04:08:50;;;;;;;36.70;26.77;;;1.00;99.90;;;;;;4966166;28;20408;-83
2021/11/28 04:11:16;;;;;;;35.20;28.43;;;0.90;99.90;;;;;;4969793;28;20402;-82
2021/11/28 04:13:42;;;;;;;38.83;28.48;;;0.90;99.90;;;;;;4970139;28;20501;-82
2021/11/28 04:16:08;;;;;;;32.17;27.00;;;0.80;99.90;;;;;;4970927;28;20415;-82
2021/11/28 04:18:34;;;;;;;36.65;28.05;;;0.70;99.90;;;;;;4971332;28;20741;-82
2021/11/28 04:20:59;;;;;;;37.92;28.60;;;0.60;99.90;;;;;;4970080;28;20493;-83
2021/11/28 04:23:25;;;;;;;38.38;28.75;;;0.60;99.90;;;;;;4972080;28;20387;-83
2021/11/28 04:25:51;;;;;;;39.08;29.65;;;0.50;99.90;;;;;;4972211;28;20390;-83
2021/11/28 04:28:17;;;;;;;45.83;32.88;;;0.50;99.90;;;;;;4971700;28;20414;-82
2021/11/28 04:30:43;;;;;;;42.40;32.03;;;0.40;99.90;;;;;;4971217;28;20905;-82
2021/11/28 04:33:10;;;;;;;40.33;30.25;;;0.40;99.90;;;;;;4971690;28;20389;-82
2021/11/28 04:35:36;;;;;;;39.13;30.02;;;0.30;99.90;;;;;;4969618;28;20486;-83
2021/11/28 04:38:03;;;;;;;42.10;31.02;;;0.30;99.90;;;;;;4970846;28;20723;-82
2021/11/28 04:40:28;;;;;;;39.08;29.98;;;0.40;99.90;;;;;;4986606;28;20839;-82
2021/11/28 04:42:54;;;;;;;42.78;32.67;;;0.40;99.90;;;;;;4971415;28;20534;-83
2021/11/28 04:45:20;;;;;;;43.17;31.67;;;0.30;99.90;;;;;;4971486;28;20888;-82
2021/11/28 04:47:45;;;;;;;40.10;31.33;;;0.30;99.90;;;;;;4970385;28;20426;-83
2021/11/28 04:50:13;;;;;;;40.10;30.17;;;0.30;99.90;;;;;;4971419;28;20371;-82
2021/11/28 04:52:39;;;;;;;41.45;30.08;;;0.20;99.90;;;;;;4971294;28;20375;-82
2021/11/28 04:55:07;;;;;;;36.00;28.07;;;0.20;99.90;;;;;;4971251;28;20813;-82
2021/11/28 04:57:33;;;;;;;33.35;27.67;;;0.10;99.90;;;;;;4971007;28;20419;-82
2021/11/28 04:59:59;;;;;;;36.92;26.88;;;0.10;99.90;;;;;;4986169;28;20816;-82
2021/11/28 05:02:25;;;;;;;34.13;27.95;;;0.00;99.90;;;;;;4970434;28;20383;-82
2021/11/28 05:04:50;;;;;;;38.65;27.98;;;0.00;99.90;;;;;;4971252;28;20390;-83
2021/11/28 05:07:16;;;;;;;35.75;27.10;;;-0.10;99.90;;;;;;4985982;28;20543;-82
2021/11/28 05:09:42;;;;;;;36.60;27.87;;;-0.20;99.90;;;;;;4970097;28;20399;-82
2021/11/28 05:12:08;;;;;;;38.30;29.07;;;-0.20;99.90;;;;;;4985811;28;20979;-82
2021/11/28 05:14:34;;;;;;;37.17;28.77;;;-0.20;99.90;;;;;;4971053;28;20912;-82
2021/11/28 05:16:59;;;;;;;35.97;27.30;;;-0.30;99.90;;;;;;4969815;28;20379;-82
2021/11/28 05:19:25;;;;;;;34.87;27.83;;;-0.30;99.90;;;;;;4979030;28;20383;-82
2021/11/28 05:21:51;;;;;;;40.83;29.13;;;-0.40;99.90;;;;;;4982556;28;20392;-82
2021/11/28 05:24:17;;;;;;;40.03;29.57;;;-0.40;99.90;;;;;;4970424;28;20386;-81
2021/11/28 05:26:42;;;;;;;38.80;30.07;;;-0.40;99.90;;;;;;4985368;28;20383;-83
2021/11/28 05:29:08;;;;;;;39.33;31.00;;;-0.50;99.90;;;;;;4969505;28;20393;-82
2021/11/28 05:31:34;;;;;;;42.75;31.70;;;-0.50;99.90;;;;;;4969515;28;20441;-82
2021/11/28 05:34:00;;;;;;;37.70;29.70;;;-0.50;99.90;;;;;;4970325;28;20390;-82
2021/11/28 05:36:26;;;;;;;41.03;31.95;;;-0.50;99.90;;;;;;4985603;28;20393;-81
2021/11/28 05:38:52;;;;;;;40.30;31.13;;;-0.40;99.90;;;;;;4969129;28;20394;-81
2021/11/28 05:41:18;;;;;;;40.40;30.23;;;-0.40;99.90;;;;;;4984657;28;20421;-83
2021/11/28 05:43:46;;;;;;;41.00;31.98;;;-0.40;99.90;;;;;;4970295;28;20391;-82
2021/11/28 05:46:12;;;;;;;40.95;31.05;;;-0.40;99.90;;;;;;4969981;28;20402;-82
2021/11/28 05:48:38;;;;;;;39.30;30.35;;;-0.40;99.90;;;;;;4981866;28;20411;-82
2021/11/28 05:51:04;;;;;;;40.85;30.50;;;-0.40;99.90;;;;;;4982370;28;20410;-82
2021/11/28 05:53:31;;;;;;;37.42;29.15;;;-0.50;99.90;;;;;;4970449;28;20463;-82
2021/11/28 05:55:57;;;;;;;36.47;28.40;;;-0.50;99.90;;;;;;4969220;28;20402;-82
2021/11/28 05:58:23;;;;;;;36.67;28.50;;;-0.50;99.90;;;;;;4969327;28;20397;-83
2021/11/28 06:00:49;;;;;;;37.65;29.10;;;-0.60;99.90;;;;;;4969092;28;20437;-83
2021/11/28 06:03:14;;;;;;;36.35;27.80;;;-0.60;99.90;;;;;;4969976;28;20741;-82
2021/11/28 06:05:43;;;;;;;34.63;27.57;;;-0.60;99.90;;;;;;4970625;28;20382;-82
2021/11/28 06:08:09;;;;;;;35.28;27.98;;;-0.70;99.90;;;;;;4970104;28;20406;-82
2021/11/28 06:10:35;;;;;;;34.67;27.33;;;-0.70;99.90;;;;;;4970480;28;20457;-82
2021/11/28 06:13:00;;;;;;;35.63;26.70;;;-0.80;99.90;;;;;;4969842;28;20445;-82
2021/11/28 06:15:26;;;;;;;33.60;27.93;;;-0.80;99.90;;;;;;4984853;28;20449;-82
2021/11/28 06:17:52;;;;;;;32.77;26.77;;;-0.80;99.90;;;;;;4968947;28;20489;-83
2021/11/28 06:20:18;;;;;;;34.30;27.60;;;-0.90;99.90;;;;;;4984542;28;20399;-82
2021/11/28 06:22:43;;;;;;;39.05;27.88;;;-0.90;99.90;;;;;;4984570;28;20399;-83
2021/11/28 06:25:09;;;;;;;36.43;28.20;;;-0.90;99.90;;;;;;4968374;28;20390;-83
2021/11/28 06:27:35;;;;;;;39.33;29.93;;;-0.90;99.90;;;;;;4968280;28;20789;-82
2021/11/28 06:30:02;;;;;;;43.93;30.87;;;-0.90;99.90;;;;;;4969667;28;20453;-82
2021/11/28 06:32:28;;;;;;;41.03;30.20;;;-0.80;99.90;;;;;;4968364;28;20984;-82
2021/11/28 06:34:54;;;;;;;40.50;31.05;;;-0.80;99.90;;;;;;4969488;28;20461;-81
2021/11/28 06:37:19;;;;;;;46.28;33.88;;;-0.80;99.90;;;;;;4968246;28;20901;-81
2021/11/28 06:39:45;;;;;;;52.08;35.70;;;-0.70;99.90;;;;;;4969711;28;20383;-82
2021/11/28 06:42:11;;;;;;;52.85;35.22;;;-0.70;99.90;;;;;;4984476;28;20792;-81
2021/11/28 06:44:36;;;;;;;56.42;37.75;;;-0.80;99.90;;;;;;4969531;28;20985;-82
2021/11/28 06:47:02;;;;;;;40.97;30.27;;;-0.80;99.90;;;;;;4977332;28;20399;-81
2021/11/28 06:49:28;;;;;;;43.83;32.42;;;-0.80;99.90;;;;;;4968835;28;20398;-82
2021/11/28 06:51:55;;;;;;;42.53;31.58;;;-0.80;99.90;;;;;;4968850;28;20875;-81
2021/11/28 06:54:23;;;;;;;42.25;30.75;;;-0.90;99.90;;;;;;4967828;28;20764;-81
2021/11/28 06:56:50;;;;;;;38.42;29.00;;;-0.90;99.90;;;;;;4969399;28;20789;-82
2021/11/28 06:59:16;;;;;;;37.65;29.25;;;-1.00;99.90;;;;;;4969378;28;20390;-80
2021/11/28 07:01:42;;;;;;;38.60;29.17;;;-1.00;99.90;;;;;;4967993;28;20422;-82
2021/11/28 07:04:07;;;;;;;43.45;31.25;;;-1.00;99.90;;;;;;4969459;28;20738;-81
2021/11/28 07:06:33;;;;;;;36.85;29.38;;;-1.00;99.90;;;;;;4969519;28;20798;-82
2021/11/28 07:08:59;;;;;;;41.25;31.20;;;-1.00;99.90;;;;;;4967876;28;20418;-81
2021/11/28 07:11:24;;;;;;;38.60;29.98;;;-1.00;99.90;;;;;;4969581;28;20398;-81
2021/11/28 07:13:51;;;;;;;38.35;28.75;;;-1.00;99.90;;;;;;4968977;28;20481;-82
2021/11/28 07:16:17;;;;;;;34.37;26.67;;;-1.10;99.90;;;;;;4983865;28;20948;-81
2021/11/28 07:18:44;;;;;;;37.58;29.38;;;-1.10;99.90;;;;;;4968192;28;20391;-82
2021/11/28 07:21:12;;;;;;;37.90;28.67;;;-1.10;99.90;;;;;;4981021;28;20396;-81
2021/11/28 07:23:38;;;;;;;38.92;30.63;;;-1.00;99.90;;;;;;4965286;28;20941;-81
2021/11/28 07:26:05;;;;;;;38.90;29.63;;;-1.00;99.90;;;;;;4949016;28;20492;-82
2021/11/28 07:28:31;;;;;;;44.33;31.48;;;-1.00;99.90;;;;;;4965680;28;20473;-81
2021/11/28 07:30:57;;;;;;;46.45;34.65;;;-0.90;99.90;;;;;;4984096;28;20489;-81
2021/11/28 07:33:22;;;;;;;43.58;33.00;;;-0.90;99.90;;;;;;4984190;28;20419;-81
2021/11/28 07:35:48;;;;;;;45.40;33.63;;;-0.50;99.90;;;;;;4972844;28;20929;-82
2021/11/28 07:38:14;;;;;;;47.47;35.33;;;-0.30;99.90;;;;;;4972096;28;20414;-82
2021/11/28 07:40:40;;;;;;;47.17;33.93;;;-0.40;99.90;;;;;;4971514;28;20993;-82
2021/11/28 07:43:06;;;;;;;48.30;35.13;;;-0.30;99.90;;;;;;4971936;28;20390;-82
2021/11/28 07:45:31;;;;;;;45.33;34.33;;;-0.40;99.90;;;;;;4972890;28;20949;-81
2021/11/28 07:47:58;;;;;;;40.97;30.95;;;-0.40;99.90;;;;;;4971452;28;20417;-82
2021/11/28 07:50:25;;;;;;;37.20;29.77;;;-0.40;99.90;;;;;;4987576;28;20391;-80
2021/11/28 07:52:51;;;;;;;39.80;30.20;;;-0.40;99.90;;;;;;4972492;28;20488;-81
2021/11/28 07:55:17;;;;;;;42.33;31.67;;;-0.30;99.90;;;;;;4972033;28;20497;-81
2021/11/28 07:57:44;;;;;;;45.43;34.13;;;-0.20;99.90;;;;;;4972356;28;20378;-81
2021/11/28 08:00:10;;;;;;;40.00;30.08;;;-0.10;99.90;;;;;;4970621;28;20413;-82
2021/11/28 08:02:36;;;;;;;41.55;31.48;;;-0.10;99.90;;;;;;4986699;28;20399;-82
2021/11/28 08:05:03;;;;;;;39.92;30.58;;;-0.10;99.90;;;;;;4972467;28;20465;-81
2021/11/28 08:07:28;;;;;;;40.33;31.38;;;0.00;99.90;;;;;;4972204;28;20890;-81
2021/11/28 08:09:54;;;;;;;39.92;30.52;;;0.00;99.90;;;;;;4966780;28;20573;-81
2021/11/28 08:12:21;;;;;;;38.20;29.52;;;0.10;99.90;;;;;;4984563;28;20396;-81
2021/11/28 08:14:48;;;;;;;40.35;30.50;;;0.10;99.90;;;;;;4970180;28;20402;-81
2021/11/28 08:17:14;;;;;;;36.70;29.42;;;0.10;99.90;;;;;;4972171;28;20378;-81
2021/11/28 08:19:40;;;;;;;41.35;31.13;;;0.20;99.90;;;;;;4972121;28;20379;-81
2021/11/28 08:22:07;;;;;;;40.58;32.13;;;0.20;99.90;;;;;;4972601;28;20428;-81
2021/11/28 08:24:33;;;;;;;43.88;33.55;;;0.30;99.90;;;;;;4972010;28;20730;-81
2021/11/28 08:27:00;;;;;;;44.50;35.37;;;0.30;99.90;;;;;;4971584;28;20442;-81
2021/11/28 08:29:26;;;;;;;45.55;34.83;;;0.40;99.90;;;;;;4971578;28;20896;-80
2021/11/28 08:31:52;;;;;;;44.28;33.92;;;0.50;99.90;;;;;;4970814;28;20382;-81
2021/11/28 08:34:18;;;;;;;43.40;33.65;;;0.60;99.90;;;;;;4971838;28;20506;-81
2021/11/28 08:36:44;;;;;;;41.45;31.35;;;0.60;99.90;;;;;;4986528;28;20389;-81
2021/11/28 08:39:11;;;;;;;40.92;32.20;;;0.80;99.90;;;;;;4971960;28;20869;-81
2021/11/28 08:41:38;;;;;;;40.78;31.63;;;0.80;99.90;;;;;;4965860;28;20418;-81
2021/11/28 08:44:04;;;;;;;36.85;29.83;;;0.90;99.90;;;;;;4970363;28;20428;-81
2021/11/28 08:46:30;;;;;;;40.15;30.63;;;1.10;99.90;;;;;;4986273;28;20397;-81
2021/11/28 08:48:57;;;;;;;42.38;31.95;;;1.10;99.90;;;;;;4971379;28;20402;-81
2021/11/28 08:51:25;;;;;;;42.65;31.08;;;1.20;99.90;;;;;;4971775;28;20386;-81
2021/11/28 08:53:52;;;;;;;39.88;30.75;;;1.20;99.90;;;;;;4971628;28;20395;-80
2021/11/28 08:56:18;;;;;;;38.38;30.23;;;1.30;99.90;;;;;;4971133;28;20401;-81
2021/11/28 08:58:44;;;;;;;37.88;29.85;;;1.50;99.90;;;;;;4986338;28;20386;-79
2021/11/28 09:01:10;;;;;;;39.08;30.52;;;1.50;99.90;;;;;;4971328;28;20425;-81
2021/11/28 09:03:36;;;;;;;36.67;28.80;;;1.60;99.90;;;;;;4971080;28;20458;-81
2021/11/28 09:06:03;;;;;;;39.47;30.08;;;1.60;99.90;;;;;;4970930;28;20952;-81
2021/11/28 09:08:28;;;;;;;37.28;28.45;;;1.60;99.90;;;;;;4970938;28;20406;-81
2021/11/28 09:10:54;;;;;;;37.33;29.08;;;1.70;99.90;;;;;;4970217;28;20399;-81
2021/11/28 09:13:20;;;;;;;36.60;28.70;;;1.70;99.90;;;;;;4971250;28;20382;-81
2021/11/28 09:15:46;;;;;;;38.60;28.83;;;1.80;99.90;;;;;;4970641;28;20418;-81
2021/11/28 09:18:22;;;;;;;38.28;29.92;;;1.70;99.90;;;;;;4970945;28;20877;-80
2021/11/28 09:20:57;;;;;;;36.63;29.05;;;1.80;99.90;;;;;;4965906;28;20415;-81
2021/11/28 09:26:07;;;;;;;30.75;25.85;;;2.00;99.90;;;;;;4970401;28;20437;-82
2021/11/28 09:28:35;;;;;;;32.57;26.83;;;2.20;99.90;;;;;;4970062;28;20473;-81
2021/11/28 09:31:01;;;;;;;32.87;25.80;;;2.30;99.90;;;;;;4970924;28;20395;-81
2021/11/28 09:33:27;;;;;;;28.93;24.77;;;2.40;99.90;;;;;;4970605;28;20730;-81
2021/11/28 09:35:52;;;;;;;29.43;24.30;;;2.40;99.90;;;;;;4970646;28;20393;-82
2021/11/28 09:38:18;;;;;;;26.55;22.17;;;2.40;99.90;;;;;;4970852;28;20911;-81
2021/11/28 09:40:46;;;;;;;25.40;22.35;;;2.50;99.90;;;;;;4970195;28;20391;-82
2021/11/28 09:43:14;;;;;;;26.75;22.20;;;2.50;99.90;;;;;;4970761;28;20379;-82
2021/11/28 09:45:42;;;;;;;24.45;21.85;;;2.40;99.90;;;;;;4970480;28;20390;-82
2021/11/28 09:48:10;;;;;;;24.25;21.30;;;2.50;99.90;;;;;;4970374;28;20410;-82
2021/11/28 09:50:39;;;;;;;23.40;20.50;;;2.50;99.90;;;;;;4963173;28;20392;-84
2021/11/28 09:53:05;;;;;;;27.40;22.63;;;2.70;99.90;;;;;;4963426;28;20410;-82
2021/11/28 09:55:32;;;;;;;24.65;21.75;;;2.70;99.90;;;;;;4970056;28;20734;-83
2021/11/28 09:57:58;;;;;;;26.75;21.90;;;2.90;99.90;;;;;;4968441;28;20912;-83
2021/11/28 10:00:25;;;;;;;22.83;20.30;;;2.90;99.90;;;;;;4970433;28;20398;-82
2021/11/28 10:02:51;;;;;;;22.98;19.33;;;3.00;99.90;;;;;;4984941;28;20437;-82
2021/11/28 10:05:17;;;;;;;22.67;19.52;;;3.00;99.90;;;;;;4967882;28;20446;-82
2021/11/28 10:07:48;;;;;;;22.15;18.10;;;3.00;99.90;;;;;;4969831;28;20477;-82
2021/11/28 10:10:16;;;;;;;22.17;17.30;;;3.10;99.90;;;;;;4969534;28;20919;-82
2021/11/28 10:12:44;;;;;;;21.25;17.65;;;3.10;99.90;;;;;;4969584;28;20430;-82
2021/11/28 10:15:16;;;;;;;21.23;17.10;;;3.10;99.90;;;;;;4968063;28;20480;-82
2021/11/28 10:17:42;;;;;;;23.33;18.33;;;3.10;99.90;;;;;;4969194;28;20398;-83
2021/11/28 10:20:11;;;;;;;21.70;17.83;;;3.20;99.90;;;;;;4970123;28;20462;-83
2021/11/28 10:22:38;;;;;;;18.75;16.42;;;3.20;99.90;;;;;;4969573;28;20390;-82
2021/11/28 10:25:23;;;;;;;20.77;17.17;;;3.30;99.90;;;;;;4969869;28;20413;-82
2021/11/28 10:27:53;;;;;;;21.45;17.58;;;3.30;99.90;;;;;;4968581;28;20463;-82
2021/11/28 10:30:28;;;;;;;24.92;18.15;;;3.20;99.90;;;;;;4969713;28;20398;-81
2021/11/28 10:32:54;;;;;;;25.30;18.98;;;3.10;99.90;;;;;;4963244;28;20395;-82
2021/11/28 10:35:21;;;;;;;25.00;18.83;;;3.00;99.90;;;;;;4979922;28;20826;-82
2021/11/28 10:37:51;;;;;;;21.75;17.73;;;3.00;99.90;;;;;;4968597;28;20398;-83
2021/11/28 10:40:20;;;;;;;21.90;17.55;;;2.90;99.90;;;;;;4963339;28;20383;-82
2021/11/28 10:42:48;;;;;;;21.35;16.83;;;3.00;99.90;;;;;;4967986;28;20390;-81
2021/11/28 10:45:21;;;;;;;21.67;17.25;;;3.10;99.90;;;;;;4962119;28;20406;-83
2021/11/28 10:47:51;;;;;;;21.75;17.15;;;3.10;99.90;;;;;;4984715;28;20750;-83
2021/11/28 10:50:29;;;;;;;20.45;17.17;;;3.30;99.90;;;;;;4968170;28;20809;-83
2021/11/28 10:53:05;;;;;;;20.48;16.52;;;3.40;99.90;;;;;;4968067;28;20907;-83
2021/11/28 10:55:42;;;;;;;23.23;17.75;;;3.50;99.90;;;;;;4967712;28;20430;-83
2021/11/28 10:58:11;;;;;;;21.05;16.02;;;3.60;99.90;;;;;;4966640;28;20408;-83
2021/11/28 11:01:01;;;;;;;19.30;16.23;;;3.60;99.90;;;;;;4969329;28;21130;-83
2021/11/28 11:03:27;;;;;;;22.98;17.08;;;3.80;99.90;;;;;;4961625;28;20822;-84
2021/11/28 11:05:58;;;;;;;17.55;15.02;;;3.80;99.90;;;;;;4972864;28;20485;-85
2021/11/28 11:08:27;;;;;;;20.02;15.45;;;3.90;99.90;;;;;;4985844;28;20454;-84
2021/11/28 11:11:11;;;;;;;19.52;15.75;;;3.90;99.90;;;;;;4973040;28;20454;-82
2021/11/28 11:14:00;;;;;;;20.23;15.32;;;4.00;99.90;;;;;;4964834;28;20905;-82
2021/11/28 11:16:43;;;;;;;20.63;15.57;;;4.00;99.90;;;;;;4971094;28;20486;-83
2021/11/28 11:19:31;;;;;;;22.83;15.27;;;4.00;99.90;;;;;;4983075;28;20775;-82
2021/11/28 11:22:07;;;;;;;17.58;15.27;;;4.00;99.90;;;;;;4970432;28;20395;-83
2021/11/28 11:24:34;;;;;;;24.08;16.25;;;3.90;99.90;;;;;;4972817;28;20386;-83
2021/11/28 11:27:14;;;;;;;19.33;15.48;;;4.10;99.90;;;;;;4972489;28;20394;-84
2021/11/28 11:29:47;;;;;;;18.73;15.07;;;4.10;99.90;;;;;;4973101;28;20469;-84
2021/11/28 11:32:14;;;;;;;20.08;14.93;;;4.20;99.90;;;;;;4972388;28;20409;-83
2021/11/28 11:34:48;;;;;;;19.23;14.02;;;4.30;99.90;;;;;;4987220;28;20439;-83
2021/11/28 11:37:15;;;;;;;16.48;12.60;;;4.30;99.90;;;;;;4985363;28;20408;-83
2021/11/28 11:39:44;;;;;;;18.20;12.88;;;4.40;99.90;;;;;;4977614;28;20409;-83
2021/11/28 11:42:12;;;;;;;18.73;13.80;;;4.40;99.90;;;;;;4974105;28;20820;-82
2021/11/28 11:44:38;;;;;;;19.10;13.77;;;4.50;99.90;;;;;;4970354;28;20896;-82
2021/11/28 11:47:04;;;;;;;19.60;14.25;;;4.40;99.90;;;;;;4977705;28;20387;-82
2021/11/28 11:49:30;;;;;;;18.60;13.67;;;4.40;99.90;;;;;;4976019;28;20824;-82
2021/11/28 11:51:57;;;;;;;19.80;14.70;;;4.30;99.90;;;;;;4970588;28;20401;-82
2021/11/28 11:54:27;;;;;;;19.50;14.53;;;4.20;99.90;;;;;;4974679;28;20912;-83
2021/11/28 11:57:03;;;;;;;19.15;13.43;;;4.30;99.90;;;;;;4968186;28;20417;-82
2021/11/28 11:59:58;;;;;;;17.77;13.75;;;4.30;99.90;;;;;;4981892;28;20398;-84
2021/11/28 12:02:44;;;;;;;17.02;15.15;;;4.40;99.90;;;;;;4964232;28;20775;-82
2021/11/28 12:05:40;;;;;;;20.27;15.73;;;4.40;99.90;;;;;;4967699;28;20871;-82
2021/11/28 12:08:15;;;;;;;19.88;13.57;;;4.50;99.90;;;;;;4956091;28;20433;-81
2021/11/28 12:10:54;;;;;;;16.60;13.00;;;4.40;99.90;;;;;;4967230;28;20393;-81
2021/11/28 12:13:25;;;;;;;20.52;14.23;;;4.40;99.90;;;;;;4967193;28;20391;-81
2021/11/28 12:15:53;;;;;;;16.65;13.73;;;4.50;99.90;;;;;;4968177;28;20387;-82
2021/11/28 12:18:34;;;;;;;20.52;15.80;;;4.50;99.90;;;;;;4966465;28;20781;-83
2021/11/28 12:21:00;;;;;;;23.38;16.05;;;4.50;99.90;;;;;;4974113;28;20398;-82
2021/11/28 12:23:59;;;;;;;19.95;15.27;;;4.50;99.90;;;;;;4967032;28;20529;-81
2021/11/28 12:26:27;;;;;;;20.48;15.98;;;4.40;99.90;;;;;;4970038;28;20402;-81
2021/11/28 12:28:58;;;;;;;20.25;15.32;;;4.30;99.90;;;;;;4967389;28;20425;-81
2021/11/28 12:31:28;;;;;;;20.40;15.65;;;4.40;99.90;;;;;;4982158;28;20470;-82
2021/11/28 12:33:54;;;;;;;20.73;16.25;;;4.40;99.90;;;;;;4968746;28;20505;-81
2021/11/28 12:36:32;;;;;;;18.52;14.80;;;4.40;99.90;;;;;;4968577;28;20769;-81
2021/11/28 12:39:04;;;;;;;21.20;15.85;;;4.40;99.90;;;;;;4961829;28;20406;-83
2021/11/28 12:41:56;;;;;;;20.52;15.93;;;4.40;99.90;;;;;;4974941;28;20765;-81
2021/11/28 12:44:24;;;;;;;20.98;16.70;;;4.30;99.90;;;;;;4966238;28;20408;-83
2021/11/28 12:46:55;;;;;;;18.80;16.43;;;4.30;99.90;;;;;;4967697;28;20414;-82